createdAt,value
2018-02-17T00:00:11.505Z,10.80
2018-02-17T00:02:38.961Z,12.00
2018-02-17T00:05:06.405Z,6.93
2018-02-17T00:07:33.863Z,13.13
2018-02-17T00:10:01.310Z,11.85
2018-02-17T00:12:29.521Z,9.60
2018-02-17T00:14:56.976Z,8.65
2018-02-17T00:17:24.422Z,12.75
2018-02-17T00:19:52.642Z,15.97
2018-02-17T00:22:20.085Z,8.73
2018-02-17T00:24:48.277Z,6.43
2018-02-17T00:27:15.754Z,7.32
2018-02-17T00:29:43.201Z,10.03
2018-02-17T00:32:10.656Z,9.55
2018-02-17T00:34:38.102Z,13.60
2018-02-17T00:37:06.319Z,12.33
2018-02-17T00:39:33.770Z,7.93
2018-02-17T00:42:01.218Z,9.27
2018-02-17T00:44:29.439Z,12.93
2018-02-17T00:46:56.885Z,8.32
2018-02-17T00:49:24.330Z,7.10
2018-02-17T00:51:52.547Z,7.77
2018-02-17T00:54:19.985Z,10.52
2018-02-17T00:56:47.454Z,10.73
2018-02-17T00:59:15.662Z,16.02
2018-02-17T01:01:43.113Z,8.67
2018-02-17T01:04:10.555Z,10.90
2018-02-17T01:06:38.004Z,11.30
2018-02-17T01:09:06.218Z,7.43
2018-02-17T01:11:33.661Z,22.70
2018-02-17T01:14:01.119Z,9.32
2018-02-17T01:16:29.344Z,6.65
2018-02-17T01:18:56.792Z,5.85
2018-02-17T01:21:24.227Z,8.68
2018-02-17T01:23:51.674Z,7.45
2018-02-17T01:26:19.881Z,8.27
2018-02-17T01:28:47.328Z,8.05
2018-02-17T01:31:15.529Z,8.82
2018-02-17T01:33:42.988Z,11.35
2018-02-17T01:36:10.443Z,5.60
2018-02-17T01:38:37.893Z,8.07
2018-02-17T01:41:06.117Z,10.67
2018-02-17T01:43:33.588Z,14.63
2018-02-17T01:46:01.048Z,17.62
2018-02-17T01:48:28.514Z,6.80
2018-02-17T01:50:55.963Z,11.97
2018-02-17T01:53:23.420Z,14.13
2018-02-17T01:55:50.873Z,11.10
2018-02-17T01:58:18.380Z,9.63
2018-02-17T02:00:45.834Z,11.38
2018-02-17T02:03:13.300Z,10.55
2018-02-17T02:05:40.752Z,15.93
2018-02-17T02:08:08.221Z,9.68
2018-02-17T02:10:35.674Z,8.48
2018-02-17T02:13:03.119Z,5.15
2018-02-17T02:15:30.579Z,13.60
2018-02-17T02:17:58.035Z,10.60
2018-02-17T02:20:25.485Z,11.55
2018-02-17T02:22:53.700Z,8.95
2018-02-17T02:25:21.145Z,11.18
2018-02-17T02:27:48.603Z,7.85
2018-02-17T02:30:16.803Z,6.28
2018-02-17T02:32:44.254Z,11.80
2018-02-17T02:35:11.726Z,11.70
2018-02-17T02:37:39.187Z,21.23
2018-02-17T02:40:06.633Z,12.68
2018-02-17T02:42:34.085Z,6.75
2018-02-17T02:45:01.525Z,9.40
2018-02-17T02:47:28.992Z,11.23
2018-02-17T02:49:57.206Z,11.30
2018-02-17T02:52:24.649Z,8.35
2018-02-17T02:54:52.862Z,15.13
2018-02-17T02:57:20.317Z,9.93
2018-02-17T02:59:47.784Z,13.32
2018-02-17T03:02:15.221Z,8.68
2018-02-17T03:04:42.686Z,14.82
2018-02-17T03:07:10.144Z,13.73
2018-02-17T03:09:38.361Z,11.35
2018-02-17T03:12:05.826Z,11.50
2018-02-17T03:14:33.280Z,11.77
2018-02-17T03:17:00.740Z,5.50
2018-02-17T03:19:28.216Z,10.20
2018-02-17T03:21:55.664Z,8.38
2018-02-17T03:24:23.121Z,12.57
2018-02-17T03:26:50.570Z,9.63
2018-02-17T03:29:18.032Z,9.48
2018-02-17T03:31:45.474Z,14.80
2018-02-17T03:34:13.704Z,9.43
2018-02-17T03:36:41.139Z,11.18
2018-02-17T03:39:08.585Z,13.27
2018-02-17T03:41:36.798Z,11.45
2018-02-17T03:44:04.257Z,13.05
2018-02-17T03:46:31.704Z,8.73
2018-02-17T03:48:59.181Z,8.77
2018-02-17T03:51:26.608Z,7.97
2018-02-17T03:53:54.826Z,8.68
2018-02-17T03:56:22.260Z,5.85
2018-02-17T03:58:49.709Z,13.13
2018-02-17T04:01:17.924Z,11.25
2018-02-17T04:03:45.368Z,10.95
2018-02-17T04:06:12.812Z,9.85
2018-02-17T04:08:41.031Z,15.80
2018-02-17T04:11:08.489Z,12.07
2018-02-17T04:13:35.955Z,9.47
2018-02-17T04:16:03.391Z,7.20
2018-02-17T04:18:30.844Z,16.90
2018-02-17T04:20:59.053Z,9.02
2018-02-17T04:23:26.516Z,7.07
2018-02-17T04:25:53.977Z,11.38
2018-02-17T04:28:21.417Z,8.57
2018-02-17T04:30:48.874Z,8.75
2018-02-17T04:33:17.084Z,9.02
2018-02-17T04:35:44.516Z,13.63
2018-02-17T04:38:11.960Z,8.57
2018-02-17T04:40:44.194Z,9.90
2018-02-17T04:46:08.294Z,10.52
2018-02-17T04:48:50.630Z,5.57
2018-02-17T04:51:20.626Z,10.50
2018-02-17T04:54:03.853Z,12.20
2018-02-17T04:56:34.738Z,12.85
2018-02-17T04:59:19.852Z,10.63
2018-02-17T05:02:03.964Z,12.52
2018-02-17T05:04:34.094Z,6.45
2018-02-17T05:07:07.249Z,8.50
2018-02-17T05:09:34.699Z,10.13
2018-02-17T05:12:02.925Z,6.65
2018-02-17T05:14:31.136Z,9.23
2018-02-17T05:17:13.462Z,10.73
2018-02-17T05:19:59.593Z,11.63
2018-02-17T05:22:31.003Z,10.23
2018-02-17T05:25:04.837Z,7.47
2018-02-17T05:27:32.283Z,12.07
2018-02-17T05:29:59.716Z,7.68
2018-02-17T05:32:31.741Z,13.50
2018-02-17T05:38:02.149Z,8.43
2018-02-17T05:40:31.378Z,6.62
2018-02-17T05:42:58.829Z,9.80
2018-02-17T05:45:26.261Z,9.83
2018-02-17T05:47:59.557Z,9.80
2018-02-17T05:50:26.997Z,10.02
2018-02-17T05:52:55.209Z,8.93
2018-02-17T05:55:22.663Z,11.05
2018-02-17T05:57:50.118Z,8.52
2018-02-17T06:00:18.309Z,7.57
2018-02-17T06:02:45.768Z,8.57
2018-02-17T06:05:13.210Z,6.45
2018-02-17T06:07:41.454Z,6.43
2018-02-17T06:10:08.886Z,11.20
2018-02-17T06:12:36.329Z,8.52
2018-02-17T06:15:03.778Z,10.88
2018-02-17T06:17:32.011Z,7.60
2018-02-17T06:19:59.469Z,6.70
2018-02-17T06:22:26.928Z,11.10
2018-02-17T06:24:55.141Z,6.07
2018-02-17T06:27:22.624Z,10.67
2018-02-17T06:29:50.833Z,8.83
2018-02-17T06:32:18.261Z,6.37
2018-02-17T06:34:46.475Z,6.82
2018-02-17T06:37:13.932Z,11.32
2018-02-17T06:39:41.400Z,9.38
2018-02-17T06:42:08.821Z,5.82
2018-02-17T06:44:37.028Z,9.07
2018-02-17T06:47:04.488Z,8.32
2018-02-17T06:49:31.928Z,6.20
2018-02-17T06:52:00.133Z,7.37
2018-02-17T06:54:27.590Z,9.13
2018-02-17T06:56:55.067Z,8.07
2018-02-17T06:59:22.503Z,7.30
2018-02-17T07:01:49.954Z,10.45
2018-02-17T07:04:18.171Z,5.05
2018-02-17T07:06:45.609Z,8.43
2018-02-17T07:09:13.057Z,8.02
2018-02-17T07:11:41.257Z,12.20
2018-02-17T07:14:08.740Z,7.40
2018-02-17T07:16:36.197Z,10.65
2018-02-17T07:19:03.648Z,11.63
2018-02-17T07:21:31.098Z,14.43
2018-02-17T07:23:58.554Z,7.03
2018-02-17T07:26:26.752Z,9.55
2018-02-17T07:28:54.205Z,10.20
2018-02-17T07:31:21.667Z,5.68
2018-02-17T07:33:49.133Z,11.73
2018-02-17T07:36:16.577Z,12.68
2018-02-17T07:38:44.797Z,5.70
2018-02-17T07:41:12.238Z,10.38
2018-02-17T07:43:39.690Z,7.22
2018-02-17T07:46:07.160Z,5.15
2018-02-17T07:48:34.627Z,11.80
2018-02-17T07:51:02.840Z,9.43
2018-02-17T07:53:30.295Z,10.25
2018-02-17T07:55:57.738Z,8.40
2018-02-17T07:58:25.177Z,13.50
2018-02-17T08:00:53.398Z,11.88
2018-02-17T08:03:20.844Z,5.80
2018-02-17T08:05:48.313Z,20.33
2018-02-17T08:08:15.775Z,13.73
2018-02-17T08:10:43.241Z,7.20
2018-02-17T08:13:10.682Z,8.27
2018-02-17T08:15:38.138Z,9.68
2018-02-17T08:18:05.613Z,6.28
2018-02-17T08:20:33.054Z,12.30
2018-02-17T08:23:01.257Z,13.85
2018-02-17T08:25:28.728Z,12.07
2018-02-17T08:27:56.181Z,7.75
2018-02-17T08:30:23.642Z,12.93
2018-02-17T08:32:51.099Z,8.40
2018-02-17T08:35:18.575Z,10.02
2018-02-17T08:37:46.143Z,7.78
2018-02-17T08:40:13.602Z,10.05
2018-02-17T08:42:41.063Z,7.78
2018-02-17T08:45:08.536Z,10.15
2018-02-17T08:47:35.999Z,8.00
2018-02-17T08:50:03.451Z,8.40
2018-02-17T08:52:30.889Z,9.70
2018-02-17T08:54:59.109Z,11.30
2018-02-17T08:57:26.574Z,8.68
2018-02-17T08:59:54.044Z,9.80
2018-02-17T09:02:21.500Z,12.15
2018-02-17T09:04:48.960Z,10.60
2018-02-17T09:07:16.394Z,6.20
2018-02-17T09:09:43.829Z,8.20
2018-02-17T09:12:12.051Z,9.40
2018-02-17T09:14:39.621Z,8.90
2018-02-17T09:17:07.056Z,6.87
2018-02-17T09:19:35.281Z,9.68
2018-02-17T09:22:02.739Z,8.10
2018-02-17T09:24:30.175Z,8.23
2018-02-17T09:26:57.633Z,10.10
2018-02-17T09:29:25.078Z,12.27
2018-02-17T09:31:53.291Z,8.97
2018-02-17T09:34:20.737Z,6.90
2018-02-17T09:36:48.200Z,7.60
2018-02-17T09:39:15.674Z,11.77
2018-02-17T09:41:43.101Z,10.10
2018-02-17T09:44:11.314Z,6.50
2018-02-17T09:46:38.781Z,9.27
2018-02-17T09:49:06.230Z,12.97
2018-02-17T09:51:33.698Z,9.13
2018-02-17T09:54:01.151Z,7.68
2018-02-17T09:56:28.613Z,12.40
2018-02-17T09:58:56.054Z,7.40
2018-02-17T10:01:24.273Z,12.83
2018-02-17T10:03:51.733Z,9.67
2018-02-17T10:06:19.174Z,10.50
2018-02-17T10:08:46.642Z,22.05
2018-02-17T10:11:14.846Z,8.00
2018-02-17T10:13:42.319Z,9.43
2018-02-17T10:16:09.779Z,18.67
2018-02-17T10:18:37.222Z,8.60
2018-02-17T10:21:04.687Z,10.13
2018-02-17T10:23:32.124Z,5.23
2018-02-17T10:25:59.583Z,10.43
2018-02-17T10:28:27.033Z,9.00
2018-02-17T10:30:54.483Z,12.70
2018-02-17T10:33:21.916Z,7.20
2018-02-17T10:35:49.370Z,8.80
2018-02-17T10:38:16.843Z,6.50
2018-02-17T10:40:44.287Z,7.73
2018-02-17T10:43:11.722Z,8.13
2018-02-17T10:45:39.953Z,12.97
2018-02-17T10:48:07.387Z,6.00
2018-02-17T10:50:34.881Z,11.18
2018-02-17T10:53:02.281Z,9.97
2018-02-17T10:55:36.080Z,7.90
2018-02-17T10:58:04.299Z,15.23
2018-02-17T11:00:31.771Z,11.17
2018-02-17T11:02:59.980Z,10.87
2018-02-17T11:05:27.410Z,6.53
2018-02-17T11:07:54.854Z,10.23
2018-02-17T11:10:22.325Z,17.50
2018-02-17T11:12:50.513Z,6.53
2018-02-17T11:15:17.954Z,8.20
2018-02-17T11:17:45.389Z,5.10
2018-02-17T11:20:13.585Z,5.90
2018-02-17T11:22:41.038Z,8.73
2018-02-17T11:25:09.252Z,8.50
2018-02-17T11:27:36.708Z,8.00
2018-02-17T11:30:04.129Z,8.63
2018-02-17T11:32:31.569Z,8.23
2018-02-17T11:35:00.691Z,21.43
2018-02-17T11:37:28.917Z,6.33
2018-02-17T11:39:56.353Z,7.07
2018-02-17T11:42:24.570Z,9.50
2018-02-17T11:44:52.017Z,7.53
2018-02-17T11:47:19.504Z,11.33
2018-02-17T11:49:46.929Z,12.47
2018-02-17T11:52:14.561Z,13.93
2018-02-17T11:54:42.004Z,7.37
2018-02-17T11:57:09.463Z,7.13
2018-02-17T11:59:36.913Z,12.87
2018-02-17T12:02:04.357Z,9.30
2018-02-17T12:04:31.790Z,7.50
2018-02-17T12:07:00.027Z,10.63
2018-02-17T12:09:27.522Z,11.57
2018-02-17T12:11:54.967Z,11.07
2018-02-17T12:14:22.406Z,7.23
2018-02-17T12:16:49.864Z,5.43
2018-02-17T12:19:17.319Z,13.03
2018-02-17T12:21:44.769Z,10.23
2018-02-17T12:24:12.205Z,6.23
2018-02-17T12:26:40.546Z,6.67
2018-02-17T12:29:07.873Z,8.80
2018-02-17T12:31:35.340Z,8.27
2018-02-17T12:34:02.791Z,7.80
2018-02-17T12:36:30.223Z,9.80
2018-02-17T12:38:57.651Z,8.30
2018-02-17T12:41:25.076Z,7.40
2018-02-17T12:43:52.533Z,7.70
2018-02-17T12:46:19.965Z,7.20
2018-02-17T12:48:48.175Z,6.80
2018-02-17T12:51:15.609Z,8.70
2018-02-17T12:53:43.823Z,12.73
2018-02-17T12:56:11.261Z,6.90
2018-02-17T12:58:38.710Z,10.13
2018-02-17T13:01:06.919Z,10.17
2018-02-17T13:03:34.383Z,9.60
2018-02-17T13:06:01.825Z,11.77
2018-02-17T13:08:29.284Z,9.80
2018-02-17T13:10:57.495Z,11.73
2018-02-17T13:13:24.948Z,7.17
2018-02-17T13:15:52.389Z,21.00
2018-02-17T13:18:19.857Z,10.30
2018-02-17T13:20:48.062Z,8.00
2018-02-17T13:23:15.532Z,8.73
2018-02-17T13:25:42.960Z,7.93
2018-02-17T13:28:10.424Z,13.87
2018-02-17T13:30:37.860Z,8.93
2018-02-17T13:33:05.315Z,5.50
2018-02-17T13:35:32.786Z,6.77
2018-02-17T13:38:00.239Z,8.30
2018-02-17T13:40:27.686Z,10.73
2018-02-17T13:42:55.140Z,5.37
2018-02-17T13:45:22.579Z,5.23
2018-02-17T13:47:50.005Z,10.40
2018-02-17T13:50:18.223Z,12.27
2018-02-17T13:52:45.680Z,8.20
2018-02-17T13:55:13.146Z,8.90
2018-02-17T13:57:40.706Z,8.53
2018-02-17T14:00:08.143Z,7.60
2018-02-17T14:02:36.355Z,8.30
2018-02-17T14:05:03.810Z,7.40
2018-02-17T14:07:31.266Z,10.73
2018-02-17T14:09:58.715Z,6.33
2018-02-17T14:12:26.909Z,6.97
2018-02-17T14:14:54.364Z,6.10
2018-02-17T14:17:21.815Z,10.63
2018-02-17T14:19:50.041Z,6.30
2018-02-17T14:22:17.492Z,5.00
2018-02-17T14:24:44.940Z,7.57
2018-02-17T14:27:12.369Z,13.63
2018-02-17T14:29:40.595Z,9.93
2018-02-17T14:32:08.043Z,10.67
2018-02-17T14:34:35.537Z,7.03
2018-02-17T14:37:02.929Z,7.27
2018-02-17T14:39:31.151Z,13.03
2018-02-17T14:41:58.589Z,6.10
2018-02-17T14:44:26.051Z,8.40
2018-02-17T14:46:54.260Z,10.63
2018-02-17T14:49:21.720Z,8.57
2018-02-17T14:51:49.178Z,11.70
2018-02-17T14:54:16.639Z,9.17
2018-02-17T14:56:44.091Z,12.60
2018-02-17T14:59:11.552Z,7.90
2018-02-17T15:01:39.003Z,9.97
2018-02-17T15:04:07.235Z,6.33
2018-02-17T15:06:34.695Z,10.43
2018-02-17T15:09:02.162Z,6.73
2018-02-17T15:11:29.629Z,9.10
2018-02-17T15:13:57.083Z,10.33
2018-02-17T15:16:24.542Z,9.83
2018-02-17T15:18:51.981Z,7.00
2018-02-17T15:21:19.469Z,8.77
2018-02-17T15:23:46.900Z,13.53
2018-02-17T15:26:14.377Z,10.57
2018-02-17T15:28:41.819Z,12.43
2018-02-17T15:31:09.265Z,8.73
2018-02-17T15:33:37.471Z,11.80
2018-02-17T15:36:05.012Z,7.13
2018-02-17T15:38:32.423Z,13.53
2018-02-17T15:40:59.880Z,7.80
2018-02-17T15:43:27.328Z,11.70
2018-02-17T15:45:54.774Z,10.20
2018-02-17T15:48:22.212Z,9.80
2018-02-17T15:50:50.440Z,14.40
2018-02-17T15:53:17.889Z,10.20
2018-02-17T15:55:45.352Z,10.43
2018-02-17T15:58:12.813Z,8.50
2018-02-17T16:00:40.276Z,9.10
2018-02-17T16:03:07.722Z,6.63
2018-02-17T16:05:35.183Z,7.03
2018-02-17T16:08:02.625Z,9.30
2018-02-17T16:10:30.841Z,10.27
2018-02-17T16:12:58.298Z,7.73
2018-02-17T16:15:25.784Z,11.13
2018-02-17T16:17:53.244Z,11.57
2018-02-17T16:20:20.694Z,12.03
2018-02-17T16:22:48.147Z,14.77
2018-02-17T16:25:15.614Z,16.00
2018-02-17T16:27:43.049Z,16.27
2018-02-17T16:30:11.275Z,9.87
2018-02-17T16:32:38.723Z,12.77
2018-02-17T16:35:06.180Z,9.37
2018-02-17T16:37:33.643Z,12.47
2018-02-17T16:40:01.078Z,9.57
2018-02-17T16:42:29.289Z,12.07
2018-02-17T16:44:56.733Z,15.20
2018-02-17T16:47:24.194Z,24.13
2018-02-17T16:49:51.645Z,19.20
2018-02-17T16:52:19.859Z,15.40
2018-02-17T16:54:47.320Z,13.90
2018-02-17T16:57:14.774Z,11.00
2018-02-17T16:59:42.238Z,11.90
2018-02-17T17:02:09.703Z,10.53
2018-02-17T17:04:37.163Z,8.53
2018-02-17T17:07:04.610Z,7.00
2018-02-17T17:09:32.063Z,11.77
2018-02-17T17:12:00.294Z,16.47
2018-02-17T17:14:27.738Z,14.90
2018-02-17T17:16:55.205Z,17.80
2018-02-17T17:19:22.665Z,32.77
2018-02-17T17:21:50.127Z,17.90
2018-02-17T17:24:17.584Z,18.13
2018-02-17T17:26:45.047Z,18.50
2018-02-17T17:29:12.500Z,17.40
2018-02-17T17:31:39.961Z,18.70
2018-02-17T17:34:07.432Z,18.23
2018-02-17T17:36:34.882Z,21.37
2018-02-17T17:39:02.355Z,20.40
2018-02-17T17:41:29.807Z,18.40
2018-02-17T17:43:57.274Z,26.23
2018-02-17T17:46:24.717Z,24.33
2018-02-17T17:48:52.933Z,24.43
2018-02-17T17:51:20.394Z,24.63
2018-02-17T17:53:47.844Z,19.47
2018-02-17T17:56:15.313Z,17.07
2018-02-17T17:58:42.770Z,19.23
2018-02-17T18:01:10.231Z,16.97
2018-02-17T18:03:37.662Z,18.90
2018-02-17T18:06:05.861Z,13.87
2018-02-17T18:08:33.309Z,12.63
2018-02-17T18:11:01.541Z,15.63
2018-02-17T18:13:29.000Z,13.23
2018-02-17T18:15:57.220Z,18.60
2018-02-17T18:18:29.231Z,19.93
2018-02-17T18:20:56.682Z,21.13
2018-02-17T18:23:24.147Z,21.37
2018-02-17T18:25:51.587Z,24.37
2018-02-17T18:28:19.851Z,15.07
2018-02-17T18:30:48.070Z,17.33
2018-02-17T18:33:15.602Z,19.80
2018-02-17T18:35:43.818Z,20.13
2018-02-17T18:38:11.276Z,15.70
2018-02-17T18:40:38.742Z,19.80
2018-02-17T18:43:06.201Z,17.93
2018-02-17T18:45:33.664Z,14.20
2018-02-17T18:48:01.121Z,35.63
2018-02-17T18:50:28.563Z,19.80
2018-02-17T18:52:56.037Z,20.75
2018-02-17T18:55:23.487Z,26.13
2018-02-17T18:57:51.738Z,26.03
2018-02-17T19:00:19.196Z,15.53
2018-02-17T19:05:13.515Z,19.30
2018-02-17T19:07:40.979Z,19.87
2018-02-17T19:10:08.421Z,19.00
2018-02-17T19:12:35.911Z,19.37
2018-02-17T19:15:03.371Z,20.20
2018-02-17T19:17:30.808Z,25.23
2018-02-17T19:19:58.262Z,17.13
2018-02-17T19:22:25.705Z,21.20
2018-02-17T19:24:53.167Z,18.58
2018-02-17T19:27:20.609Z,18.33
2018-02-17T19:29:48.041Z,19.30
2018-02-17T19:32:15.485Z,19.50
2018-02-17T19:34:42.946Z,26.43
2018-02-17T19:37:10.396Z,33.27
2018-02-17T19:39:37.841Z,19.35
2018-02-17T19:42:05.279Z,25.83
2018-02-17T19:44:32.726Z,21.70
2018-02-17T19:47:00.933Z,27.67
2018-02-17T19:49:28.407Z,23.12
2018-02-17T19:51:55.854Z,19.87
2018-02-17T19:54:23.332Z,19.40
2018-02-17T19:56:50.778Z,17.73
2018-02-17T19:59:18.235Z,22.47
2018-02-17T20:01:46.455Z,16.20
2018-02-17T20:04:13.926Z,18.10
2018-02-17T20:06:41.370Z,28.53
2018-02-17T20:09:08.813Z,26.30
2018-02-17T20:11:36.260Z,22.90
2018-02-17T20:14:04.462Z,18.10
2018-02-17T20:16:31.905Z,23.43
2018-02-17T20:18:59.374Z,20.42
2018-02-17T20:21:26.818Z,19.67
2018-02-17T20:23:55.021Z,23.57
2018-02-17T20:26:22.813Z,28.05
2018-02-17T20:28:50.269Z,19.55
2018-02-17T20:31:17.723Z,21.50
2018-02-17T20:33:45.171Z,16.70
2018-02-17T20:36:12.630Z,20.03
2018-02-17T20:38:40.863Z,27.13
2018-02-17T20:41:08.306Z,20.40
2018-02-17T20:43:35.756Z,26.90
2018-02-17T20:46:03.193Z,15.17
2018-02-17T20:48:30.642Z,22.92
2018-02-17T20:50:58.901Z,18.90
2018-02-17T20:53:26.337Z,19.53
2018-02-17T20:55:53.808Z,17.90
2018-02-17T20:58:21.284Z,16.58
2018-02-17T21:00:48.738Z,22.87
2018-02-17T21:03:16.190Z,19.10
2018-02-17T21:05:43.685Z,16.93
2018-02-17T21:08:11.123Z,14.13
2018-02-17T21:10:38.556Z,14.27
2018-02-17T21:13:06.011Z,17.35
2018-02-17T21:15:33.471Z,14.05
2018-02-17T21:18:00.945Z,15.77
2018-02-17T21:20:28.408Z,20.00
2018-02-17T21:22:55.868Z,18.17
2018-02-17T21:25:23.310Z,21.60
2018-02-17T21:27:50.762Z,18.70
2018-02-17T21:30:18.248Z,17.67
2018-02-17T21:32:45.708Z,17.95
2018-02-17T21:35:13.179Z,14.07
2018-02-17T21:37:40.623Z,21.23
2018-02-17T21:40:08.075Z,21.30
2018-02-17T21:42:36.284Z,18.03
2018-02-17T21:45:03.748Z,22.03
2018-02-17T21:47:31.199Z,19.23
2018-02-17T21:49:58.637Z,14.13
2018-02-17T21:52:26.853Z,14.47
2018-02-17T21:54:54.323Z,18.85
2018-02-17T21:57:21.776Z,12.95
2018-02-17T21:59:49.225Z,19.83
2018-02-17T22:02:16.669Z,16.63
2018-02-17T22:04:44.131Z,20.20
2018-02-17T22:07:12.343Z,20.43
2018-02-17T22:09:39.804Z,24.43
2018-02-17T22:12:07.263Z,24.50
2018-02-17T22:14:34.732Z,21.40
2018-02-17T22:17:03.178Z,17.50
2018-02-17T22:19:31.402Z,15.52
2018-02-17T22:21:58.870Z,19.65
2018-02-17T22:24:26.344Z,17.05
2018-02-17T22:26:53.804Z,21.85
2018-02-17T22:29:21.263Z,22.20
2018-02-17T22:31:48.728Z,22.92
2018-02-17T22:34:16.182Z,17.50
2018-02-17T22:36:43.991Z,14.82
2018-02-17T22:39:11.438Z,12.93
2018-02-17T22:41:38.903Z,15.00
2018-02-17T22:44:06.384Z,13.38
2018-02-17T22:46:34.597Z,11.95
2018-02-17T22:49:02.052Z,12.97
2018-02-17T22:51:29.496Z,13.35
2018-02-17T22:53:57.707Z,19.37
2018-02-17T22:56:25.164Z,23.90
2018-02-17T22:58:52.613Z,17.00
2018-02-17T23:01:20.062Z,14.57
2018-02-17T23:03:48.272Z,22.42
2018-02-17T23:06:15.741Z,22.10
2018-02-17T23:08:43.255Z,14.98
2018-02-17T23:11:10.697Z,14.60
2018-02-17T23:13:38.169Z,20.98
2018-02-17T23:16:05.622Z,12.45
2018-02-17T23:18:33.061Z,15.60
2018-02-17T23:21:00.515Z,17.45
2018-02-17T23:23:27.980Z,19.83
2018-02-17T23:25:55.454Z,18.70
2018-02-17T23:28:22.899Z,16.52
2018-02-17T23:30:50.341Z,17.58
2018-02-17T23:33:17.781Z,15.15
2018-02-17T23:35:46.017Z,14.90
2018-02-17T23:38:13.450Z,16.25
2018-02-17T23:40:40.922Z,16.02
2018-02-17T23:43:08.357Z,14.85
2018-02-17T23:45:36.604Z,16.67
2018-02-17T23:48:04.053Z,18.10
2018-02-17T23:50:31.501Z,17.17
2018-02-17T23:52:58.954Z,10.90
2018-02-17T23:55:26.444Z,16.83
2018-02-17T23:57:53.866Z,15.40
